sensor_id;sensor_type;location;lat;lon;timestamp;temperature;humidity
80676;SHT30;70041;46.088;18.268;2023-07-29T00:00:43;19.98;79.17
80676;SHT30;70041;46.088;18.268;2023-07-29T00:03:09;19.94;79.85
80676;SHT30;70041;46.088;18.268;2023-07-29T00:05:34;19.91;79.93
80676;SHT30;70041;46.088;18.268;2023-07-29T00:08:00;19.87;79.95
80676;SHT30;70041;46.088;18.268;2023-07-29T00:10:27;19.83;80.34
80676;SHT30;70041;46.088;18.268;2023-07-29T00:12:52;19.78;79.86
80676;SHT30;70041;46.088;18.268;2023-07-29T00:15:17;19.77;79.91
80676;SHT30;70041;46.088;18.268;2023-07-29T00:17:43;19.69;80.40
80676;SHT30;70041;46.088;18.268;2023-07-29T00:20:08;19.70;80.30
80676;SHT30;70041;46.088;18.268;2023-07-29T00:22:34;19.76;80.03
80676;SHT30;70041;46.088;18.268;2023-07-29T00:24:59;19.86;79.63
80676;SHT30;70041;46.088;18.268;2023-07-29T00:27:25;19.91;79.72
80676;SHT30;70041;46.088;18.268;2023-07-29T00:29:51;19.86;79.80
80676;SHT30;70041;46.088;18.268;2023-07-29T00:32:17;19.80;79.96
80676;SHT30;70041;46.088;18.268;2023-07-29T00:34:42;19.77;80.15
80676;SHT30;70041;46.088;18.268;2023-07-29T00:37:07;19.71;80.50
80676;SHT30;70041;46.088;18.268;2023-07-29T00:39:33;19.67;80.57
80676;SHT30;70041;46.088;18.268;2023-07-29T00:41:58;19.60;80.75
80676;SHT30;70041;46.088;18.268;2023-07-29T00:44:24;19.57;80.89
80676;SHT30;70041;46.088;18.268;2023-07-29T00:46:52;19.55;80.65
80676;SHT30;70041;46.088;18.268;2023-07-29T00:49:18;19.60;80.64
80676;SHT30;70041;46.088;18.268;2023-07-29T00:51:44;19.57;80.67
80676;SHT30;70041;46.088;18.268;2023-07-29T00:54:09;19.59;80.19
80676;SHT30;70041;46.088;18.268;2023-07-29T00:56:35;19.56;80.57
80676;SHT30;70041;46.088;18.268;2023-07-29T00:59:01;19.49;81.10
80676;SHT30;70041;46.088;18.268;2023-07-29T01:01:30;19.45;81.18
80676;SHT30;70041;46.088;18.268;2023-07-29T01:03:56;19.40;81.42
80676;SHT30;70041;46.088;18.268;2023-07-29T01:06:34;19.39;81.11
80676;SHT30;70041;46.088;18.268;2023-07-29T01:09:44;19.35;81.58
80676;SHT30;70041;46.088;18.268;2023-07-29T01:15:13;19.33;81.18
80676;SHT30;70041;46.088;18.268;2023-07-29T01:17:43;19.35;80.82
80676;SHT30;70041;46.088;18.268;2023-07-29T01:20:14;19.42;80.60
80676;SHT30;70041;46.088;18.268;2023-07-29T01:22:41;19.39;80.74
80676;SHT30;70041;46.088;18.268;2023-07-29T01:25:07;19.43;80.03
80676;SHT30;70041;46.088;18.268;2023-07-29T01:27:32;19.40;80.53
80676;SHT30;70041;46.088;18.268;2023-07-29T01:29:58;19.37;80.85
80676;SHT30;70041;46.088;18.268;2023-07-29T01:35:24;19.30;80.69
80676;SHT30;70041;46.088;18.268;2023-07-29T01:37:55;19.27;80.90
80676;SHT30;70041;46.088;18.268;2023-07-29T01:40:23;19.27;80.95
80676;SHT30;70041;46.088;18.268;2023-07-29T01:42:51;19.23;81.20
80676;SHT30;70041;46.088;18.268;2023-07-29T01:45:17;19.20;81.03
80676;SHT30;70041;46.088;18.268;2023-07-29T01:47:42;19.20;81.00
80676;SHT30;70041;46.088;18.268;2023-07-29T01:50:08;19.22;81.25
80676;SHT30;70041;46.088;18.268;2023-07-29T01:52:34;19.20;80.77
80676;SHT30;70041;46.088;18.268;2023-07-29T01:54:59;19.06;81.19
80676;SHT30;70041;46.088;18.268;2023-07-29T01:57:25;18.98;81.46
80676;SHT30;70041;46.088;18.268;2023-07-29T01:59:50;18.88;81.80
80676;SHT30;70041;46.088;18.268;2023-07-29T02:02:16;18.84;82.18
80676;SHT30;70041;46.088;18.268;2023-07-29T02:04:41;18.82;81.02
80676;SHT30;70041;46.088;18.268;2023-07-29T02:07:07;18.82;81.34
80676;SHT30;70041;46.088;18.268;2023-07-29T02:09:32;18.79;81.96
80676;SHT30;70041;46.088;18.268;2023-07-29T02:11:57;18.75;80.79
80676;SHT30;70041;46.088;18.268;2023-07-29T02:14:23;18.75;80.43
80676;SHT30;70041;46.088;18.268;2023-07-29T02:16:48;18.65;80.33
80676;SHT30;70041;46.088;18.268;2023-07-29T02:19:14;18.65;80.02
80676;SHT30;70041;46.088;18.268;2023-07-29T02:21:40;18.61;81.04
80676;SHT30;70041;46.088;18.268;2023-07-29T02:24:05;18.45;81.16
80676;SHT30;70041;46.088;18.268;2023-07-29T02:26:31;18.40;81.42
80676;SHT30;70041;46.088;18.268;2023-07-29T02:28:56;18.38;80.50
80676;SHT30;70041;46.088;18.268;2023-07-29T02:31:24;18.44;81.21
80676;SHT30;70041;46.088;18.268;2023-07-29T02:33:50;18.34;81.01
80676;SHT30;70041;46.088;18.268;2023-07-29T02:36:16;18.33;80.26
80676;SHT30;70041;46.088;18.268;2023-07-29T02:38:42;18.37;80.09
80676;SHT30;70041;46.088;18.268;2023-07-29T02:41:08;18.30;79.96
80676;SHT30;70041;46.088;18.268;2023-07-29T02:43:35;18.20;80.23
80676;SHT30;70041;46.088;18.268;2023-07-29T02:46:02;18.17;80.66
80676;SHT30;70041;46.088;18.268;2023-07-29T02:48:28;18.20;80.81
80676;SHT30;70041;46.088;18.268;2023-07-29T02:50:54;18.18;80.53
80676;SHT30;70041;46.088;18.268;2023-07-29T02:53:19;18.16;81.25
80676;SHT30;70041;46.088;18.268;2023-07-29T02:55:45;18.04;81.83
80676;SHT30;70041;46.088;18.268;2023-07-29T02:58:10;17.97;82.27
80676;SHT30;70041;46.088;18.268;2023-07-29T03:00:36;17.93;82.40
80676;SHT30;70041;46.088;18.268;2023-07-29T03:03:01;17.96;82.05
80676;SHT30;70041;46.088;18.268;2023-07-29T03:05:27;18.02;82.02
80676;SHT30;70041;46.088;18.268;2023-07-29T03:07:53;18.04;81.35
80676;SHT30;70041;46.088;18.268;2023-07-29T03:10:18;18.10;80.72
80676;SHT30;70041;46.088;18.268;2023-07-29T03:12:44;18.10;81.20
80676;SHT30;70041;46.088;18.268;2023-07-29T03:15:09;18.09;81.25
80676;SHT30;70041;46.088;18.268;2023-07-29T03:17:35;18.16;80.88
80676;SHT30;70041;46.088;18.268;2023-07-29T03:20:00;18.14;80.96
80676;SHT30;70041;46.088;18.268;2023-07-29T03:22:26;18.21;81.32
80676;SHT30;70041;46.088;18.268;2023-07-29T03:24:51;18.13;80.20
80676;SHT30;70041;46.088;18.268;2023-07-29T03:27:16;18.18;80.21
80676;SHT30;70041;46.088;18.268;2023-07-29T03:29:42;18.16;80.55
80676;SHT30;70041;46.088;18.268;2023-07-29T03:32:07;18.18;80.12
80676;SHT30;70041;46.088;18.268;2023-07-29T03:34:33;18.18;81.09
80676;SHT30;70041;46.088;18.268;2023-07-29T03:37:00;18.20;80.89
80676;SHT30;70041;46.088;18.268;2023-07-29T03:39:26;18.29;80.46
80676;SHT30;70041;46.088;18.268;2023-07-29T03:41:51;18.31;81.05
80676;SHT30;70041;46.088;18.268;2023-07-29T03:44:17;18.29;81.10
80676;SHT30;70041;46.088;18.268;2023-07-29T03:46:43;18.26;81.37
80676;SHT30;70041;46.088;18.268;2023-07-29T03:49:09;18.34;81.00
80676;SHT30;70041;46.088;18.268;2023-07-29T03:51:34;18.34;79.60
80676;SHT30;70041;46.088;18.268;2023-07-29T03:54:00;18.30;79.77
80676;SHT30;70041;46.088;18.268;2023-07-29T03:56:25;18.34;79.92
80676;SHT30;70041;46.088;18.268;2023-07-29T03:58:52;18.34;80.63
80676;SHT30;70041;46.088;18.268;2023-07-29T04:01:17;18.21;81.55
80676;SHT30;70041;46.088;18.268;2023-07-29T04:03:47;18.23;81.47
80676;SHT30;70041;46.088;18.268;2023-07-29T04:06:12;18.29;80.93
80676;SHT30;70041;46.088;18.268;2023-07-29T04:08:38;18.29;80.74
80676;SHT30;70041;46.088;18.268;2023-07-29T04:11:03;18.37;80.66
80676;SHT30;70041;46.088;18.268;2023-07-29T04:13:29;18.45;80.48
80676;SHT30;70041;46.088;18.268;2023-07-29T04:15:54;18.47;80.89
80676;SHT30;70041;46.088;18.268;2023-07-29T04:18:19;18.51;80.62
80676;SHT30;70041;46.088;18.268;2023-07-29T04:20:45;18.62;80.29
80676;SHT30;70041;46.088;18.268;2023-07-29T04:23:10;18.71;79.94
80676;SHT30;70041;46.088;18.268;2023-07-29T04:25:35;18.71;80.45
80676;SHT30;70041;46.088;18.268;2023-07-29T04:28:01;18.74;81.15
80676;SHT30;70041;46.088;18.268;2023-07-29T04:30:28;18.76;80.72
80676;SHT30;70041;46.088;18.268;2023-07-29T04:32:54;18.69;80.54
80676;SHT30;70041;46.088;18.268;2023-07-29T04:35:19;18.74;80.45
80676;SHT30;70041;46.088;18.268;2023-07-29T04:37:44;18.85;79.54
80676;SHT30;70041;46.088;18.268;2023-07-29T04:40:10;18.96;79.89
80676;SHT30;70041;46.088;18.268;2023-07-29T04:42:36;19.02;79.35
80676;SHT30;70041;46.088;18.268;2023-07-29T04:45:02;18.98;79.15
80676;SHT30;70041;46.088;18.268;2023-07-29T04:47:27;19.02;79.87
80676;SHT30;70041;46.088;18.268;2023-07-29T04:49:53;19.04;79.10
80676;SHT30;70041;46.088;18.268;2023-07-29T04:52:18;19.06;78.86
80676;SHT30;70041;46.088;18.268;2023-07-29T04:54:44;19.13;78.79
80676;SHT30;70041;46.088;18.268;2023-07-29T04:57:10;19.20;78.13
80676;SHT30;70041;46.088;18.268;2023-07-29T04:59:36;19.26;78.73
80676;SHT30;70041;46.088;18.268;2023-07-29T05:02:02;19.29;77.80
80676;SHT30;70041;46.088;18.268;2023-07-29T05:04:27;19.36;76.95
80676;SHT30;70041;46.088;18.268;2023-07-29T05:06:53;19.42;77.52
80676;SHT30;70041;46.088;18.268;2023-07-29T05:09:19;19.47;76.93
80676;SHT30;70041;46.088;18.268;2023-07-29T05:11:48;19.45;77.23
80676;SHT30;70041;46.088;18.268;2023-07-29T05:14:15;19.50;77.40
80676;SHT30;70041;46.088;18.268;2023-07-29T05:16:40;19.56;77.80
80676;SHT30;70041;46.088;18.268;2023-07-29T05:19:06;19.64;77.78
80676;SHT30;70041;46.088;18.268;2023-07-29T05:21:31;19.74;78.34
80676;SHT30;70041;46.088;18.268;2023-07-29T05:23:57;19.81;77.14
80676;SHT30;70041;46.088;18.268;2023-07-29T05:26:22;19.83;77.96
80676;SHT30;70041;46.088;18.268;2023-07-29T05:28:48;19.84;77.06
80676;SHT30;70041;46.088;18.268;2023-07-29T05:31:13;19.78;77.70
80676;SHT30;70041;46.088;18.268;2023-07-29T05:33:39;19.73;77.68
80676;SHT30;70041;46.088;18.268;2023-07-29T05:36:04;19.80;78.68
80676;SHT30;70041;46.088;18.268;2023-07-29T05:38:30;19.83;77.65
80676;SHT30;70041;46.088;18.268;2023-07-29T05:40:56;19.84;78.21
80676;SHT30;70041;46.088;18.268;2023-07-29T05:43:21;19.83;77.77
80676;SHT30;70041;46.088;18.268;2023-07-29T05:45:46;19.87;78.55
80676;SHT30;70041;46.088;18.268;2023-07-29T05:48:12;19.90;78.32
80676;SHT30;70041;46.088;18.268;2023-07-29T05:50:37;19.93;77.44
80676;SHT30;70041;46.088;18.268;2023-07-29T05:53:03;19.97;78.09
80676;SHT30;70041;46.088;18.268;2023-07-29T05:55:28;20.01;78.12
80676;SHT30;70041;46.088;18.268;2023-07-29T05:57:54;20.06;78.61
80676;SHT30;70041;46.088;18.268;2023-07-29T06:00:20;20.13;78.59
80676;SHT30;70041;46.088;18.268;2023-07-29T06:02:45;20.18;78.37
80676;SHT30;70041;46.088;18.268;2023-07-29T06:05:11;20.18;78.15
80676;SHT30;70041;46.088;18.268;2023-07-29T06:07:37;20.25;77.95
80676;SHT30;70041;46.088;18.268;2023-07-29T06:10:03;20.53;75.83
80676;SHT30;70041;46.088;18.268;2023-07-29T06:12:28;20.61;76.22
80676;SHT30;70041;46.088;18.268;2023-07-29T06:14:54;20.68;75.76
80676;SHT30;70041;46.088;18.268;2023-07-29T06:17:19;20.75;74.99
80676;SHT30;70041;46.088;18.268;2023-07-29T06:19:45;20.95;73.24
80676;SHT30;70041;46.088;18.268;2023-07-29T06:22:10;21.03;74.24
80676;SHT30;70041;46.088;18.268;2023-07-29T06:24:36;21.02;74.21
80676;SHT30;70041;46.088;18.268;2023-07-29T06:27:01;21.09;72.51
80676;SHT30;70041;46.088;18.268;2023-07-29T06:29:27;21.17;73.56
80676;SHT30;70041;46.088;18.268;2023-07-29T06:31:52;21.29;72.52
80676;SHT30;70041;46.088;18.268;2023-07-29T06:34:18;21.41;73.16
80676;SHT30;70041;46.088;18.268;2023-07-29T06:36:44;21.53;74.27
80676;SHT30;70041;46.088;18.268;2023-07-29T06:39:09;21.71;73.45
80676;SHT30;70041;46.088;18.268;2023-07-29T06:41:35;21.84;72.48
80676;SHT30;70041;46.088;18.268;2023-07-29T06:44:00;21.90;72.55
80676;SHT30;70041;46.088;18.268;2023-07-29T06:46:26;22.05;71.56
80676;SHT30;70041;46.088;18.268;2023-07-29T06:48:51;22.12;71.08
80676;SHT30;70041;46.088;18.268;2023-07-29T06:51:17;22.21;71.90
80676;SHT30;70041;46.088;18.268;2023-07-29T06:53:42;22.26;71.84
80676;SHT30;70041;46.088;18.268;2023-07-29T06:56:07;22.32;71.15
80676;SHT30;70041;46.088;18.268;2023-07-29T06:58:34;22.41;71.14
80676;SHT30;70041;46.088;18.268;2023-07-29T07:00:59;22.48;70.84
80676;SHT30;70041;46.088;18.268;2023-07-29T07:03:24;22.53;71.01
80676;SHT30;70041;46.088;18.268;2023-07-29T07:05:50;22.69;69.77
80676;SHT30;70041;46.088;18.268;2023-07-29T07:08:16;22.86;69.64
80676;SHT30;70041;46.088;18.268;2023-07-29T07:10:41;22.93;69.05
80676;SHT30;70041;46.088;18.268;2023-07-29T07:13:06;22.96;68.78
80676;SHT30;70041;46.088;18.268;2023-07-29T07:15:32;23.07;67.93
80676;SHT30;70041;46.088;18.268;2023-07-29T07:17:57;23.03;68.20
80676;SHT30;70041;46.088;18.268;2023-07-29T07:20:23;23.04;69.05
80676;SHT30;70041;46.088;18.268;2023-07-29T07:22:48;23.14;68.82
80676;SHT30;70041;46.088;18.268;2023-07-29T07:25:13;23.27;69.76
80676;SHT30;70041;46.088;18.268;2023-07-29T07:27:39;23.30;70.18
80676;SHT30;70041;46.088;18.268;2023-07-29T07:30:05;23.40;68.85
80676;SHT30;70041;46.088;18.268;2023-07-29T07:32:30;23.44;68.08
80676;SHT30;70041;46.088;18.268;2023-07-29T07:34:56;23.43;68.45
80676;SHT30;70041;46.088;18.268;2023-07-29T07:37:21;23.40;68.97
80676;SHT30;70041;46.088;18.268;2023-07-29T07:39:47;23.44;67.39
80676;SHT30;70041;46.088;18.268;2023-07-29T07:42:12;23.47;68.56
80676;SHT30;70041;46.088;18.268;2023-07-29T07:44:37;23.57;67.87
80676;SHT30;70041;46.088;18.268;2023-07-29T07:47:03;23.68;68.62
80676;SHT30;70041;46.088;18.268;2023-07-29T07:49:28;23.64;68.43
80676;SHT30;70041;46.088;18.268;2023-07-29T07:51:54;23.72;68.54
80676;SHT30;70041;46.088;18.268;2023-07-29T07:54:19;23.82;68.20
80676;SHT30;70041;46.088;18.268;2023-07-29T07:56:45;23.89;68.14
80676;SHT30;70041;46.088;18.268;2023-07-29T07:59:10;24.04;67.76
80676;SHT30;70041;46.088;18.268;2023-07-29T08:01:36;24.15;66.62
80676;SHT30;70041;46.088;18.268;2023-07-29T08:04:03;24.13;66.99
80676;SHT30;70041;46.088;18.268;2023-07-29T08:06:28;24.23;67.36
80676;SHT30;70041;46.088;18.268;2023-07-29T08:08:54;24.29;66.57
80676;SHT30;70041;46.088;18.268;2023-07-29T08:11:19;24.37;66.02
80676;SHT30;70041;46.088;18.268;2023-07-29T08:13:45;24.46;65.46
80676;SHT30;70041;46.088;18.268;2023-07-29T08:16:10;24.43;65.06
80676;SHT30;70041;46.088;18.268;2023-07-29T08:18:35;24.53;65.88
80676;SHT30;70041;46.088;18.268;2023-07-29T08:21:01;24.64;64.90
80676;SHT30;70041;46.088;18.268;2023-07-29T08:23:31;24.70;65.37
80676;SHT30;70041;46.088;18.268;2023-07-29T08:26:00;24.83;65.05
80676;SHT30;70041;46.088;18.268;2023-07-29T08:28:28;24.90;64.21
80676;SHT30;70041;46.088;18.268;2023-07-29T08:30:54;24.92;64.19
80676;SHT30;70041;46.088;18.268;2023-07-29T08:33:19;25.08;62.19
80676;SHT30;70041;46.088;18.268;2023-07-29T08:35:45;25.22;62.19
80676;SHT30;70041;46.088;18.268;2023-07-29T08:38:10;25.34;62.05
80676;SHT30;70041;46.088;18.268;2023-07-29T08:40:37;25.41;60.66
80676;SHT30;70041;46.088;18.268;2023-07-29T08:43:06;25.50;59.95
80676;SHT30;70041;46.088;18.268;2023-07-29T08:45:36;25.62;59.57
80676;SHT30;70041;46.088;18.268;2023-07-29T08:48:07;25.65;59.29
80676;SHT30;70041;46.088;18.268;2023-07-29T08:50:35;25.72;57.14
80676;SHT30;70041;46.088;18.268;2023-07-29T08:53:04;25.72;57.55
80676;SHT30;70041;46.088;18.268;2023-07-29T08:55:31;25.75;53.96
80676;SHT30;70041;46.088;18.268;2023-07-29T08:57:57;25.80;54.15
80676;SHT30;70041;46.088;18.268;2023-07-29T09:00:23;25.86;57.29
80676;SHT30;70041;46.088;18.268;2023-07-29T09:02:49;25.90;56.10
80676;SHT30;70041;46.088;18.268;2023-07-29T09:05:14;25.89;54.80
80676;SHT30;70041;46.088;18.268;2023-07-29T09:07:40;25.97;55.69
80676;SHT30;70041;46.088;18.268;2023-07-29T09:10:08;26.00;55.61
80676;SHT30;70041;46.088;18.268;2023-07-29T09:12:35;26.12;55.92
80676;SHT30;70041;46.088;18.268;2023-07-29T09:15:01;26.10;55.13
80676;SHT30;70041;46.088;18.268;2023-07-29T09:17:26;26.12;54.38
80676;SHT30;70041;46.088;18.268;2023-07-29T09:19:55;26.20;54.76
80676;SHT30;70041;46.088;18.268;2023-07-29T09:22:21;26.31;52.87
80676;SHT30;70041;46.088;18.268;2023-07-29T09:24:47;26.33;53.40
80676;SHT30;70041;46.088;18.268;2023-07-29T09:27:24;26.37;52.78
80676;SHT30;70041;46.088;18.268;2023-07-29T09:29:50;26.36;52.28
80676;SHT30;70041;46.088;18.268;2023-07-29T09:32:24;26.41;52.11
80676;SHT30;70041;46.088;18.268;2023-07-29T09:34:50;26.54;53.57
80676;SHT30;70041;46.088;18.268;2023-07-29T09:37:25;26.65;53.16
80676;SHT30;70041;46.088;18.268;2023-07-29T09:39:51;26.87;55.13
80676;SHT30;70041;46.088;18.268;2023-07-29T09:42:18;27.02;52.70
80676;SHT30;70041;46.088;18.268;2023-07-29T09:44:44;26.91;50.71
80676;SHT30;70041;46.088;18.268;2023-07-29T09:47:09;26.95;52.76
80676;SHT30;70041;46.088;18.268;2023-07-29T09:49:43;26.92;50.48
80676;SHT30;70041;46.088;18.268;2023-07-29T09:52:09;26.94;50.96
80676;SHT30;70041;46.088;18.268;2023-07-29T09:54:36;26.95;51.11
80676;SHT30;70041;46.088;18.268;2023-07-29T09:57:02;26.96;51.21
80676;SHT30;70041;46.088;18.268;2023-07-29T09:59:28;27.11;51.47
80676;SHT30;70041;46.088;18.268;2023-07-29T10:01:54;27.11;50.93
80676;SHT30;70041;46.088;18.268;2023-07-29T10:04:19;27.13;51.11
80676;SHT30;70041;46.088;18.268;2023-07-29T10:06:46;27.33;52.12
80676;SHT30;70041;46.088;18.268;2023-07-29T10:09:12;27.39;50.66
80676;SHT30;70041;46.088;18.268;2023-07-29T10:11:39;27.38;49.57
80676;SHT30;70041;46.088;18.268;2023-07-29T10:14:04;27.33;50.08
80676;SHT30;70041;46.088;18.268;2023-07-29T10:16:30;27.31;48.48
80676;SHT30;70041;46.088;18.268;2023-07-29T10:18:56;27.43;48.60
80676;SHT30;70041;46.088;18.268;2023-07-29T10:21:22;27.49;49.36
80676;SHT30;70041;46.088;18.268;2023-07-29T10:23:49;27.71;48.69
80676;SHT30;70041;46.088;18.268;2023-07-29T10:26:20;27.79;49.40
80676;SHT30;70041;46.088;18.268;2023-07-29T10:28:47;27.90;49.13
80676;SHT30;70041;46.088;18.268;2023-07-29T10:31:14;28.01;47.95
80676;SHT30;70041;46.088;18.268;2023-07-29T10:33:40;28.07;47.42
80676;SHT30;70041;46.088;18.268;2023-07-29T10:36:06;28.01;48.37
80676;SHT30;70041;46.088;18.268;2023-07-29T10:38:33;28.14;48.55
80676;SHT30;70041;46.088;18.268;2023-07-29T10:40:58;28.13;46.11
80676;SHT30;70041;46.088;18.268;2023-07-29T10:43:32;28.38;49.71
80676;SHT30;70041;46.088;18.268;2023-07-29T10:46:15;29.67;46.49
80676;SHT30;70041;46.088;18.268;2023-07-29T10:51:37;31.14;41.35
80676;SHT30;70041;46.088;18.268;2023-07-29T10:54:10;31.20;43.07
80676;SHT30;70041;46.088;18.268;2023-07-29T10:56:42;31.17;42.82
80676;SHT30;70041;46.088;18.268;2023-07-29T11:01:39;31.50;43.20
80676;SHT30;70041;46.088;18.268;2023-07-29T11:17:56;31.23;42.34
80676;SHT30;70041;46.088;18.268;2023-07-29T11:20:24;30.69;43.09
80676;SHT30;70041;46.088;18.268;2023-07-29T11:22:50;30.12;44.46
80676;SHT30;70041;46.088;18.268;2023-07-29T11:25:17;29.78;45.39
80676;SHT30;70041;46.088;18.268;2023-07-29T11:27:43;29.60;45.66
80676;SHT30;70041;46.088;18.268;2023-07-29T11:30:11;29.09;46.54
80676;SHT30;70041;46.088;18.268;2023-07-29T11:32:37;29.23;46.64
80676;SHT30;70041;46.088;18.268;2023-07-29T11:35:05;29.43;46.71
80676;SHT30;70041;46.088;18.268;2023-07-29T11:37:33;29.30;47.57
80676;SHT30;70041;46.088;18.268;2023-07-29T11:39:58;28.99;44.94
80676;SHT30;70041;46.088;18.268;2023-07-29T11:42:24;28.95;46.14
80676;SHT30;70041;46.088;18.268;2023-07-29T11:44:49;28.96;45.28
80676;SHT30;70041;46.088;18.268;2023-07-29T11:47:15;29.05;44.12
80676;SHT30;70041;46.088;18.268;2023-07-29T11:49:40;29.13;46.60
80676;SHT30;70041;46.088;18.268;2023-07-29T11:52:10;29.17;45.74
80676;SHT30;70041;46.088;18.268;2023-07-29T11:54:36;29.37;45.96
80676;SHT30;70041;46.088;18.268;2023-07-29T11:57:07;29.68;46.07
80676;SHT30;70041;46.088;18.268;2023-07-29T11:59:36;29.71;45.34
80676;SHT30;70041;46.088;18.268;2023-07-29T12:02:07;29.66;45.56
80676;SHT30;70041;46.088;18.268;2023-07-29T12:04:34;29.74;46.76
80676;SHT30;70041;46.088;18.268;2023-07-29T12:07:00;29.84;46.62
80676;SHT30;70041;46.088;18.268;2023-07-29T12:09:27;29.88;44.76
80676;SHT30;70041;46.088;18.268;2023-07-29T12:11:53;29.80;46.61
80676;SHT30;70041;46.088;18.268;2023-07-29T12:14:18;29.74;46.15
80676;SHT30;70041;46.088;18.268;2023-07-29T12:16:44;29.84;45.87
80676;SHT30;70041;46.088;18.268;2023-07-29T12:19:13;29.80;46.02
80676;SHT30;70041;46.088;18.268;2023-07-29T12:21:41;29.77;45.01
80676;SHT30;70041;46.088;18.268;2023-07-29T12:24:07;29.78;43.97
80676;SHT30;70041;46.088;18.268;2023-07-29T12:26:32;29.81;42.12
80676;SHT30;70041;46.088;18.268;2023-07-29T12:28:58;30.01;43.49
80676;SHT30;70041;46.088;18.268;2023-07-29T12:31:33;30.79;41.26
80676;SHT30;70041;46.088;18.268;2023-07-29T12:33:58;31.89;41.18
80676;SHT30;70041;46.088;18.268;2023-07-29T12:36:45;31.96;40.60
80676;SHT30;70041;46.088;18.268;2023-07-29T12:39:27;31.55;42.72
80676;SHT30;70041;46.088;18.268;2023-07-29T12:41:57;31.24;43.95
80676;SHT30;70041;46.088;18.268;2023-07-29T12:44:24;31.99;42.37
80676;SHT30;70041;46.088;18.268;2023-07-29T12:46:49;33.21;40.24
80676;SHT30;70041;46.088;18.268;2023-07-29T12:49:15;34.15;36.95
80676;SHT30;70041;46.088;18.268;2023-07-29T12:51:40;34.32;36.35
80676;SHT30;70041;46.088;18.268;2023-07-29T12:54:06;34.71;36.84
80676;SHT30;70041;46.088;18.268;2023-07-29T12:56:32;35.31;35.48
80676;SHT30;70041;46.088;18.268;2023-07-29T12:58:58;34.56;36.05
80676;SHT30;70041;46.088;18.268;2023-07-29T13:01:24;33.34;37.82
80676;SHT30;70041;46.088;18.268;2023-07-29T13:03:50;32.76;38.66
80676;SHT30;70041;46.088;18.268;2023-07-29T13:06:15;33.00;39.38
80676;SHT30;70041;46.088;18.268;2023-07-29T13:08:41;33.61;37.60
80676;SHT30;70041;46.088;18.268;2023-07-29T13:11:07;34.63;35.67
80676;SHT30;70041;46.088;18.268;2023-07-29T13:13:32;34.91;35.49
80676;SHT30;70041;46.088;18.268;2023-07-29T13:15:58;35.34;34.61
80676;SHT30;70041;46.088;18.268;2023-07-29T13:18:24;35.98;32.55
80676;SHT30;70041;46.088;18.268;2023-07-29T13:20:49;36.37;32.96
80676;SHT30;70041;46.088;18.268;2023-07-29T13:23:15;36.91;31.62
80676;SHT30;70041;46.088;18.268;2023-07-29T13:25:41;37.00;32.42
80676;SHT30;70041;46.088;18.268;2023-07-29T13:28:06;37.10;32.08
80676;SHT30;70041;46.088;18.268;2023-07-29T13:30:32;36.44;31.14
80676;SHT30;70041;46.088;18.268;2023-07-29T13:32:58;37.80;30.78
80676;SHT30;70041;46.088;18.268;2023-07-29T13:35:23;37.59;32.13
80676;SHT30;70041;46.088;18.268;2023-07-29T13:37:49;37.58;31.94
80676;SHT30;70041;46.088;18.268;2023-07-29T13:40:14;37.78;32.26
80676;SHT30;70041;46.088;18.268;2023-07-29T13:42:40;37.82;29.37
80676;SHT30;70041;46.088;18.268;2023-07-29T13:45:05;36.62;30.92
80676;SHT30;70041;46.088;18.268;2023-07-29T13:47:31;37.51;30.60
80676;SHT30;70041;46.088;18.268;2023-07-29T13:49:56;37.62;29.47
80676;SHT30;70041;46.088;18.268;2023-07-29T13:52:22;38.19;29.48
80676;SHT30;70041;46.088;18.268;2023-07-29T13:54:47;38.27;30.99
80676;SHT30;70041;46.088;18.268;2023-07-29T13:57:13;37.52;30.74
80676;SHT30;70041;46.088;18.268;2023-07-29T13:59:38;38.78;28.82
80676;SHT30;70041;46.088;18.268;2023-07-29T14:02:06;38.84;30.01
80676;SHT30;70041;46.088;18.268;2023-07-29T14:04:33;39.11;29.35
80676;SHT30;70041;46.088;18.268;2023-07-29T14:06:58;38.05;30.28
80676;SHT30;70041;46.088;18.268;2023-07-29T14:09:25;38.44;29.76
80676;SHT30;70041;46.088;18.268;2023-07-29T14:11:50;38.77;29.60
80676;SHT30;70041;46.088;18.268;2023-07-29T14:14:16;38.49;31.49
80676;SHT30;70041;46.088;18.268;2023-07-29T14:16:41;38.39;29.59
80676;SHT30;70041;46.088;18.268;2023-07-29T14:19:07;38.30;30.02
80676;SHT30;70041;46.088;18.268;2023-07-29T14:21:32;36.05;32.84
80676;SHT30;70041;46.088;18.268;2023-07-29T14:23:57;35.13;34.26
80676;SHT30;70041;46.088;18.268;2023-07-29T14:26:23;35.17;34.53
80676;SHT30;70041;46.088;18.268;2023-07-29T14:28:48;35.10;34.50
80676;SHT30;70041;46.088;18.268;2023-07-29T14:31:15;35.81;33.18
80676;SHT30;70041;46.088;18.268;2023-07-29T14:33:42;36.13;31.92
80676;SHT30;70041;46.088;18.268;2023-07-29T14:36:07;37.10;32.61
80676;SHT30;70041;46.088;18.268;2023-07-29T14:38:33;37.43;31.38
80676;SHT30;70041;46.088;18.268;2023-07-29T14:40:59;37.65;30.42
80676;SHT30;70041;46.088;18.268;2023-07-29T14:43:25;37.93;31.01
80676;SHT30;70041;46.088;18.268;2023-07-29T14:45:50;38.39;31.04
80676;SHT30;70041;46.088;18.268;2023-07-29T14:48:16;37.99;30.11
80676;SHT30;70041;46.088;18.268;2023-07-29T14:50:41;37.94;30.13
80676;SHT30;70041;46.088;18.268;2023-07-29T14:53:09;37.99;29.98
80676;SHT30;70041;46.088;18.268;2023-07-29T14:55:34;38.09;30.51
80676;SHT30;70041;46.088;18.268;2023-07-29T14:58:00;38.40;30.90
80676;SHT30;70041;46.088;18.268;2023-07-29T15:00:25;38.26;29.87
80676;SHT30;70041;46.088;18.268;2023-07-29T15:02:50;37.85;31.40
80676;SHT30;70041;46.088;18.268;2023-07-29T15:05:16;38.33;30.56
80676;SHT30;70041;46.088;18.268;2023-07-29T15:07:41;37.72;31.37
80676;SHT30;70041;46.088;18.268;2023-07-29T15:10:07;37.58;32.08
80676;SHT30;70041;46.088;18.268;2023-07-29T15:12:32;37.96;30.65
80676;SHT30;70041;46.088;18.268;2023-07-29T15:14:58;37.62;30.55
80676;SHT30;70041;46.088;18.268;2023-07-29T15:17:23;38.03;29.87
80676;SHT30;70041;46.088;18.268;2023-07-29T15:19:48;38.40;29.71
80676;SHT30;70041;46.088;18.268;2023-07-29T15:22:15;38.87;29.75
80676;SHT30;70041;46.088;18.268;2023-07-29T15:24:41;38.39;30.55
80676;SHT30;70041;46.088;18.268;2023-07-29T15:27:11;38.70;30.67
80676;SHT30;70041;46.088;18.268;2023-07-29T15:29:37;39.48;29.50
80676;SHT30;70041;46.088;18.268;2023-07-29T15:32:03;39.11;29.45
80676;SHT30;70041;46.088;18.268;2023-07-29T15:34:28;37.99;31.23